Suffolk, VA

7:27 AM EDT on July 28, 2015 (GMT -0400)
Holiday Point Estates | | Change Station
CLOSE
Current Station
Personal Weather Station
Location: Suffolk, VA
Elevation: 26 ft
Nearby Weather Stations

Elev 26 ft 36.87 °N, 76.49 °W | Updated 31 seconds ago

Partly Cloudy
Partly Cloudy
75.4 °F
Feels Like 75 °F
N
0.0
Wind Variable Wind from SE
Gusts 0.0 mph

Today
High -- | Low -- °F
--% Chance of Precip.
Yesterday
High -- | Low -- °F
Precip. -- in
6:08 AM 8:16 PM
Waxing Gibbous, 89% visible
Pressure 30.03 in
Visibility 10.0 miles
Clouds Scattered Clouds 6000 ft
Overcast 8000 ft
Heat Index 75 °F
Dew Point 73 °F
Humidity 91%
Rainfall 0.00 in
Snow Depth Not available.
UV 0.0 out of 12
Pollen 5.60 out of 12
Air Quality Not available.
Flu Activity Not available.
METAR KSFQ 281115Z AUTO 00000KT 10SM SCT060 OVC080 22/21 A3003 RMK AO2 LTG DSNT S T02220212

More Conditions Fewer Conditions

Pressure 30.03 in
Visibility 10.0 miles
Clouds Scattered Clouds 6000 ft
Overcast 8000 ft
Heat Index 75 °F
Dew Point 73 °F
Humidity 91%
Rainfall 0.00 in
Snow Depth Not available.
UV 0.0 out of 12
Pollen 5.60 out of 12
Air Quality Not available.
Flu Activity Not available.
METAR KSFQ 281115Z AUTO 00000KT 10SM SCT060 OVC080 22/21 A3003 RMK AO2 LTG DSNT S T02220212

More Conditions Fewer Conditions

10-Day Weather Forecast

×

Almanac

Astronomy

Jul. 28, 2015 Rise Set
Actual Time
Civil Twilight
Nautical Twilight
Astronomical Twilight
Moon
Length of Visible Light
Length of Day
Tomorrow will be .
, % of the Moon is Illuminated

Today's Extremes

State Highs State Lows

Community

WunderPhotos

Upload Photos

1,841,808 photos uploaded!

WunderBlogs® & News

Nearby

Air Quality

  Air Quality AQ Index Pollutant
Not available.

Snow Depth

Station Depth Elevation

Earthquake Activity

City Distance Mag. Time & Date
Minimum magnitude displayed is 2.5.

Coastal Water Temperatures

Place Temperature

Stations

Nearby Weather Stations

Station Location Temp. Windchill Dew Point Humidity Wind Precip. Elev Updated Type